createdAt,value
2019-05-03T00:01:34.859Z,5.60
2019-05-03T00:04:05.002Z,6.58
2019-05-03T00:06:35.109Z,7.47
2019-05-03T00:09:08.014Z,7.45
2019-05-03T00:11:38.358Z,7.55
2019-05-03T00:14:08.459Z,7.62
2019-05-03T00:16:41.661Z,8.03
2019-05-03T00:19:12.737Z,8.13
2019-05-03T00:21:42.950Z,7.60
2019-05-03T00:24:12.999Z,8.05
2019-05-03T00:26:43.088Z,7.45
2019-05-03T00:29:13.136Z,8.25
2019-05-03T00:31:43.192Z,7.65
2019-05-03T00:34:16.657Z,8.20
2019-05-03T00:36:54.007Z,9.00
2019-05-03T00:39:32.499Z,8.88
2019-05-03T00:42:02.864Z,9.40
2019-05-03T00:44:32.965Z,9.98
2019-05-03T00:47:03.079Z,9.88
2019-05-03T00:49:33.091Z,10.85
2019-05-03T00:52:03.142Z,10.70
2019-05-03T00:54:33.164Z,10.90
2019-05-03T00:57:04.558Z,10.48
2019-05-03T00:59:34.591Z,12.45
2019-05-03T01:02:04.782Z,13.15
2019-05-03T01:04:34.874Z,13.80
2019-05-03T01:07:04.902Z,14.47
2019-05-03T01:09:35.399Z,13.88
2019-05-03T01:12:06.485Z,13.38
2019-05-03T01:14:38.559Z,13.38
2019-05-03T01:17:08.595Z,13.18
2019-05-03T01:19:38.609Z,12.93
2019-05-03T01:22:09.011Z,13.78
2019-05-03T01:24:39.112Z,14.47
2019-05-03T01:27:09.147Z,14.18
2019-05-03T01:29:39.150Z,13.95
2019-05-03T01:32:09.190Z,15.08
2019-05-03T01:34:39.251Z,14.60
2019-05-03T01:37:09.336Z,14.45
2019-05-03T01:39:39.479Z,14.33
2019-05-03T01:42:12.019Z,14.83
2019-05-03T01:44:42.721Z,14.23
2019-05-03T01:49:55.751Z,14.10
2019-05-03T01:52:29.900Z,14.13
2019-05-03T01:54:59.945Z,14.13
2019-05-03T01:57:30.035Z,15.55
2019-05-03T02:00:00.182Z,15.63
2019-05-03T02:02:36.658Z,15.30
2019-05-03T02:05:38.586Z,13.58
2019-05-03T02:08:09.776Z,11.65
2019-05-03T02:10:39.980Z,11.40
2019-05-03T02:13:12.285Z,10.18
2019-05-03T02:15:42.615Z,9.98
2019-05-03T02:18:14.947Z,8.45
2019-05-03T02:20:44.375Z,8.40
2019-05-03T02:23:14.510Z,8.35
2019-05-03T02:25:55.610Z,8.10
2019-05-03T02:28:16.259Z,7.50
2019-05-03T02:30:46.315Z,7.85
2019-05-03T02:33:16.424Z,6.28
2019-05-03T02:35:46.456Z,6.42
2019-05-03T02:38:17.841Z,6.50
2019-05-03T02:40:47.895Z,6.35
2019-05-03T02:43:31.862Z,6.25
2019-05-03T02:46:29.847Z,5.50
2019-05-03T02:49:27.983Z,6.15
2019-05-03T02:51:58.125Z,6.33
2019-05-03T02:54:28.203Z,5.60
2019-05-03T02:56:58.223Z,5.22
2019-05-03T02:59:29.393Z,6.22
2019-05-03T03:01:59.664Z,5.85
2019-05-03T03:04:30.343Z,6.25
2019-05-03T03:07:01.067Z,5.22
2019-05-03T03:09:31.504Z,5.65
2019-05-03T03:12:06.189Z,5.72
2019-05-03T03:14:36.724Z,5.45
2019-05-03T03:17:08.646Z,5.53
2019-05-03T03:19:41.963Z,5.78
2019-05-03T03:22:15.891Z,5.50
2019-05-03T03:24:49.171Z,5.35
2019-05-03T03:27:22.296Z,5.53
2019-05-03T03:29:59.115Z,5.65
2019-05-03T03:32:38.285Z,5.37
2019-05-03T03:35:20.450Z,4.75
2019-05-03T03:37:46.721Z,5.67
2019-05-03T03:40:18.026Z,5.30
2019-05-03T03:42:50.838Z,4.80
2019-05-03T03:45:21.906Z,5.40
2019-05-03T03:47:56.484Z,5.00
2019-05-03T03:50:28.100Z,5.53
2019-05-03T03:53:00.716Z,5.70
2019-05-03T03:55:35.414Z,5.72
2019-05-03T03:58:06.500Z,13.28
2019-05-03T04:00:36.793Z,8.80
2019-05-03T04:03:06.801Z,6.37
2019-05-03T04:05:36.907Z,5.78
2019-05-03T04:08:06.936Z,5.97
2019-05-03T04:10:37.011Z,5.72
2019-05-03T04:13:09.063Z,5.78
2019-05-03T04:16:01.343Z,5.37
2019-05-03T04:18:57.299Z,5.50
2019-05-03T04:21:27.958Z,5.00
2019-05-03T04:23:58.062Z,9.10
2019-05-03T04:26:29.933Z,4.72
2019-05-03T04:29:00.346Z,5.75
2019-05-03T04:31:30.450Z,6.33
2019-05-03T04:34:00.454Z,7.10
2019-05-03T04:36:30.485Z,7.20
2019-05-03T04:39:00.488Z,8.63
2019-05-03T04:41:30.723Z,8.50
2019-05-03T04:44:00.755Z,8.83
2019-05-03T04:46:30.808Z,9.45
2019-05-03T04:49:00.811Z,9.53
2019-05-03T04:51:30.909Z,9.50
2019-05-03T04:54:18.587Z,9.88
2019-05-03T04:56:48.660Z,10.00
2019-05-03T04:59:18.674Z,9.85
2019-05-03T05:01:50.624Z,8.85
2019-05-03T05:04:20.695Z,9.13
2019-05-03T05:06:50.886Z,7.92
2019-05-03T05:09:20.899Z,8.63
2019-05-03T05:11:51.020Z,7.30
2019-05-03T05:14:21.151Z,8.00
2019-05-03T05:16:51.216Z,7.15
2019-05-03T05:19:27.083Z,7.83
2019-05-03T05:22:03.257Z,7.78
2019-05-03T05:24:34.634Z,7.12
2019-05-03T05:27:26.907Z,6.87
2019-05-03T05:29:57.836Z,7.85
2019-05-03T05:32:27.966Z,7.80
2019-05-03T05:34:58.015Z,7.90
2019-05-03T05:37:28.153Z,8.08
2019-05-03T05:39:58.274Z,7.42
2019-05-03T05:42:28.600Z,7.90
2019-05-03T05:44:58.627Z,9.68
2019-05-03T05:47:44.844Z,12.13
2019-05-03T05:50:22.896Z,11.78
2019-05-03T05:52:55.202Z,11.05
2019-05-03T05:55:44.799Z,12.33
2019-05-03T05:58:39.743Z,10.88
2019-05-03T06:01:40.832Z,10.82
2019-05-03T06:04:10.960Z,11.55
2019-05-03T06:06:52.306Z,10.93
2019-05-03T06:09:34.460Z,11.05
2019-05-03T06:12:22.211Z,11.15
2019-05-03T06:14:56.351Z,10.55
2019-05-03T06:17:31.259Z,10.18
2019-05-03T06:20:12.865Z,9.13
2019-05-03T06:22:55.694Z,9.28
2019-05-03T06:25:35.356Z,9.15
2019-05-03T06:28:18.385Z,8.38
2019-05-03T06:31:21.147Z,7.85
2019-05-03T06:33:52.483Z,7.08
2019-05-03T06:36:24.369Z,7.25
2019-05-03T06:38:54.819Z,7.05
2019-05-03T06:41:25.179Z,6.62
2019-05-03T06:43:55.357Z,6.42
2019-05-03T06:46:45.513Z,7.10
2019-05-03T06:49:15.677Z,7.22
2019-05-03T06:51:49.760Z,5.95
2019-05-03T06:54:20.516Z,6.00
2019-05-03T06:56:49.271Z,5.92
2019-05-03T06:59:28.063Z,5.92
2019-05-03T07:02:28.571Z,5.50
2019-05-03T07:04:58.787Z,5.33
2019-05-03T07:07:47.847Z,5.95
2019-05-03T07:10:24.933Z,4.47
2019-05-03T07:12:57.884Z,5.42
2019-05-03T07:15:28.527Z,5.12
2019-05-03T07:17:59.073Z,5.30
2019-05-03T07:20:30.776Z,5.53
2019-05-03T07:23:00.784Z,5.28
2019-05-03T07:25:30.798Z,5.72
2019-05-03T07:28:00.834Z,5.30
2019-05-03T07:30:31.039Z,5.87
2019-05-03T07:33:05.003Z,5.20
2019-05-03T07:35:35.387Z,6.00
2019-05-03T07:38:05.553Z,6.12
2019-05-03T07:40:35.727Z,5.83
2019-05-03T07:43:05.750Z,6.67
2019-05-03T07:45:35.881Z,6.42
2019-05-03T07:48:06.408Z,6.30
2019-05-03T07:50:36.639Z,6.40
2019-05-03T07:53:06.689Z,6.33
2019-05-03T07:55:54.830Z,6.85
2019-05-03T07:58:26.348Z,7.22
2019-05-03T08:01:06.123Z,6.25
2019-05-03T08:03:30.306Z,6.40
2019-05-03T08:06:00.416Z,7.28
2019-05-03T08:08:30.506Z,6.50
2019-05-03T08:11:00.983Z,7.35
2019-05-03T08:13:31.216Z,6.37
2019-05-03T08:16:01.508Z,6.08
2019-05-03T08:18:31.559Z,6.50
2019-05-03T08:21:01.606Z,5.90
2019-05-03T08:23:31.742Z,4.97
2019-05-03T08:26:01.984Z,5.65
2019-05-03T08:28:32.098Z,6.10
2019-05-03T08:31:32.175Z,5.80
2019-05-03T08:34:19.889Z,5.33
2019-05-03T08:37:02.175Z,5.25
2019-05-03T08:39:32.269Z,6.03
2019-05-03T08:42:05.960Z,5.45
2019-05-03T08:44:36.334Z,5.83
2019-05-03T08:47:06.447Z,5.37
2019-05-03T08:49:36.607Z,5.47
2019-05-03T08:52:06.722Z,5.55
2019-05-03T08:54:36.831Z,5.62
2019-05-03T08:57:07.026Z,5.70
2019-05-03T08:59:37.097Z,5.58
2019-05-03T09:02:13.906Z,5.42
2019-05-03T09:04:42.887Z,5.42
2019-05-03T09:07:10.956Z,4.97
2019-05-03T09:10:06.239Z,5.47
2019-05-03T09:12:55.528Z,4.87
2019-05-03T09:15:26.795Z,4.58
2019-05-03T09:17:57.178Z,3.98
2019-05-03T09:20:27.454Z,4.12
2019-05-03T09:22:57.626Z,4.22
2019-05-03T09:25:27.745Z,4.50
2019-05-03T09:27:57.820Z,4.15
2019-05-03T09:30:28.056Z,4.25
2019-05-03T09:32:59.027Z,3.87
2019-05-03T09:35:33.080Z,4.05
2019-05-03T09:38:01.029Z,3.77
2019-05-03T09:40:31.267Z,3.90
2019-05-03T09:43:01.345Z,4.03
2019-05-03T09:45:31.541Z,4.05
2019-05-03T09:48:01.874Z,3.58
2019-05-03T09:50:31.973Z,3.83
2019-05-03T09:53:02.035Z,4.15
2019-05-03T09:55:36.364Z,4.37
2019-05-03T09:58:07.542Z,4.60
2019-05-03T10:00:38.127Z,4.95
2019-05-03T10:03:08.188Z,4.50
2019-05-03T10:05:38.249Z,4.37
2019-05-03T10:08:08.286Z,4.40
2019-05-03T10:10:57.366Z,4.42
2019-05-03T10:13:27.621Z,4.30
2019-05-03T10:15:57.828Z,4.42
2019-05-03T10:18:27.892Z,5.10
2019-05-03T10:20:58.006Z,5.15
2019-05-03T10:23:47.117Z,4.53
2019-05-03T10:26:17.194Z,4.55
2019-05-03T10:28:47.305Z,4.37
2019-05-03T10:31:17.404Z,4.67
2019-05-03T10:34:00.909Z,4.65
2019-05-03T10:36:30.995Z,3.60
2019-05-03T10:39:01.092Z,3.90
2019-05-03T10:41:34.792Z,4.35
2019-05-03T10:44:06.011Z,4.45
2019-05-03T10:46:36.194Z,5.10
2019-05-03T10:49:08.131Z,4.30
2019-05-03T10:51:45.090Z,5.25
2019-05-03T10:54:14.785Z,4.90
2019-05-03T10:57:02.365Z,4.60
2019-05-03T10:59:32.415Z,3.87
2019-05-03T11:02:11.475Z,4.15
2019-05-03T11:04:43.691Z,3.75
2019-05-03T11:07:14.891Z,3.62
2019-05-03T11:09:49.729Z,3.70
2019-05-03T11:12:17.746Z,3.75
2019-05-03T11:14:47.790Z,3.50
2019-05-03T11:17:18.008Z,4.05
2019-05-03T11:19:48.496Z,4.20
2019-05-03T11:22:18.975Z,3.75
2019-05-03T11:24:49.010Z,3.47
2019-05-03T11:27:24.814Z,2.85
2019-05-03T11:29:55.588Z,3.10
2019-05-03T11:32:55.631Z,2.58
2019-05-03T11:35:50.103Z,3.00
2019-05-03T11:38:31.295Z,3.20
2019-05-03T11:41:01.443Z,2.87
2019-05-03T11:43:31.648Z,2.90
2019-05-03T11:46:01.780Z,3.05
2019-05-03T11:48:31.900Z,3.00
2019-05-03T11:51:02.081Z,2.85
2019-05-03T11:53:32.124Z,2.72
2019-05-03T11:56:02.183Z,3.00
2019-05-03T11:58:34.251Z,2.80
2019-05-03T12:01:17.039Z,3.00
2019-05-03T12:03:49.051Z,3.10
2019-05-03T12:06:19.219Z,3.37
2019-05-03T12:08:49.249Z,3.00
2019-05-03T12:11:19.428Z,3.40
2019-05-03T12:14:01.671Z,2.50
2019-05-03T12:16:48.456Z,2.70
2019-05-03T12:18:55.183Z,2.80
2019-05-03T12:21:27.446Z,3.05
2019-05-03T12:23:58.658Z,2.80
2019-05-03T12:26:40.757Z,2.95
2019-05-03T12:29:00.819Z,2.90
2019-05-03T12:31:37.960Z,2.87
2019-05-03T12:34:02.786Z,2.90
2019-05-03T12:36:36.728Z,2.58
2019-05-03T12:39:05.682Z,2.70
2019-05-03T12:41:36.082Z,2.60
2019-05-03T12:44:06.197Z,3.00
2019-05-03T12:46:36.494Z,2.85
2019-05-03T12:49:06.518Z,2.72
2019-05-03T12:51:36.597Z,2.58
2019-05-03T12:54:07.887Z,2.50
2019-05-03T12:56:37.942Z,2.47
2019-05-03T12:59:18.695Z,2.42
2019-05-03T13:02:20.012Z,2.77
2019-05-03T13:04:52.059Z,2.83
2019-05-03T13:07:27.691Z,2.50
2019-05-03T13:09:57.700Z,2.58
2019-05-03T13:12:29.499Z,2.52
2019-05-03T13:15:00.570Z,2.55
2019-05-03T13:17:37.090Z,2.60
2019-05-03T13:20:11.610Z,3.00
2019-05-03T13:22:41.639Z,2.72
2019-05-03T13:25:12.128Z,2.52
2019-05-03T13:27:42.247Z,2.67
2019-05-03T13:30:12.743Z,2.30
2019-05-03T13:32:42.771Z,2.33
2019-05-03T13:35:15.076Z,2.50
2019-05-03T13:37:46.631Z,2.50
2019-05-03T13:40:16.739Z,2.70
2019-05-03T13:42:56.199Z,2.98
2019-05-03T13:45:18.630Z,2.80
2019-05-03T13:47:48.704Z,2.70
2019-05-03T13:50:20.279Z,2.90
2019-05-03T13:52:50.683Z,2.40
2019-05-03T13:55:20.743Z,2.70
2019-05-03T13:57:50.886Z,2.75
2019-05-03T14:00:21.120Z,2.40
2019-05-03T14:02:52.361Z,2.47
2019-05-03T14:05:24.450Z,2.45
2019-05-03T14:07:56.189Z,2.40
2019-05-03T14:10:25.837Z,2.40
2019-05-03T14:12:55.876Z,2.58
2019-05-03T14:15:25.884Z,2.50
2019-05-03T14:17:55.999Z,2.50
2019-05-03T14:20:45.232Z,2.47
2019-05-03T14:23:15.500Z,2.50
2019-05-03T14:25:45.598Z,2.15
2019-05-03T14:28:15.663Z,2.55
2019-05-03T14:30:45.923Z,2.50
2019-05-03T14:33:15.951Z,2.30
2019-05-03T14:35:45.977Z,2.77
2019-05-03T14:38:16.010Z,2.33
2019-05-03T14:40:47.369Z,2.80
2019-05-03T14:43:17.632Z,2.45
2019-05-03T14:45:47.642Z,2.55
2019-05-03T14:48:18.807Z,3.00
2019-05-03T14:50:48.855Z,2.67
2019-05-03T14:53:18.899Z,2.55
2019-05-03T14:55:53.830Z,2.55
2019-05-03T14:58:41.483Z,2.55
2019-05-03T15:01:24.717Z,2.50
2019-05-03T15:03:54.976Z,2.55
2019-05-03T15:06:28.181Z,2.30
2019-05-03T15:08:59.321Z,2.25
2019-05-03T15:11:29.400Z,2.37
2019-05-03T15:13:59.535Z,2.60
2019-05-03T15:16:29.651Z,2.55
2019-05-03T15:18:59.659Z,2.52
2019-05-03T15:21:29.691Z,2.33
2019-05-03T15:23:59.759Z,2.22
2019-05-03T15:26:29.791Z,2.27
2019-05-03T15:28:59.823Z,2.70
2019-05-03T15:31:29.847Z,2.80
2019-05-03T15:33:59.863Z,3.27
2019-05-03T15:36:29.920Z,3.17
2019-05-03T15:39:00.003Z,2.55
2019-05-03T15:41:31.771Z,2.83
2019-05-03T15:44:18.792Z,2.47
2019-05-03T15:46:56.710Z,2.72
2019-05-03T15:49:27.698Z,2.50
2019-05-03T15:51:58.014Z,2.42
2019-05-03T15:54:28.139Z,2.25
2019-05-03T15:56:58.230Z,2.40
2019-05-03T15:59:28.227Z,2.00
2019-05-03T16:01:58.422Z,2.40
2019-05-03T16:04:28.431Z,2.52
2019-05-03T16:06:58.575Z,2.15
2019-05-03T16:09:28.651Z,2.40
2019-05-03T16:11:58.747Z,2.05
2019-05-03T16:14:29.111Z,2.35
2019-05-03T16:16:59.214Z,2.40
2019-05-03T16:19:29.222Z,2.12
2019-05-03T16:21:59.311Z,2.02
2019-05-03T16:24:29.431Z,2.27
2019-05-03T16:27:24.859Z,2.77
2019-05-03T16:29:55.511Z,2.80
2019-05-03T16:32:26.647Z,2.52
2019-05-03T16:34:57.561Z,2.37
2019-05-03T16:37:28.426Z,2.50
2019-05-03T16:39:58.514Z,2.60
2019-05-03T16:42:28.561Z,2.37
2019-05-03T16:44:58.938Z,2.45
2019-05-03T16:47:29.417Z,2.40
2019-05-03T16:49:59.636Z,2.58
2019-05-03T16:52:30.755Z,2.70
2019-05-03T16:55:00.851Z,2.77
2019-05-03T16:57:31.582Z,2.83
2019-05-03T17:00:01.824Z,2.80
2019-05-03T17:02:32.479Z,2.77
2019-05-03T17:05:10.016Z,2.70
2019-05-03T17:08:11.066Z,3.00
2019-05-03T17:10:45.427Z,2.52
2019-05-03T17:13:15.697Z,2.40
2019-05-03T17:15:45.738Z,2.70
2019-05-03T17:18:17.282Z,2.70
2019-05-03T17:20:47.486Z,2.67
2019-05-03T17:23:17.568Z,2.77
2019-05-03T17:25:47.574Z,2.62
2019-05-03T17:28:17.619Z,2.70
2019-05-03T17:30:47.730Z,2.62
2019-05-03T17:33:17.748Z,3.10
2019-05-03T17:35:47.823Z,2.75
2019-05-03T17:38:17.900Z,2.90
2019-05-03T17:40:59.864Z,2.85
2019-05-03T17:43:34.665Z,2.70
2019-05-03T17:46:06.639Z,2.77
2019-05-03T17:48:36.758Z,2.72
2019-05-03T17:51:06.847Z,2.92
2019-05-03T17:53:56.040Z,2.62
2019-05-03T17:56:30.914Z,2.95
2019-05-03T17:59:04.613Z,3.10
2019-05-03T18:01:55.383Z,3.40
2019-05-03T18:04:46.212Z,3.55
2019-05-03T18:07:45.341Z,3.45
2019-05-03T18:10:15.916Z,3.77
2019-05-03T18:12:46.055Z,2.83
2019-05-03T18:15:16.210Z,2.83
2019-05-03T18:17:46.264Z,2.90
2019-05-03T18:20:16.380Z,2.45
2019-05-03T18:22:46.552Z,2.90
2019-05-03T18:25:16.587Z,2.90
2019-05-03T18:27:47.110Z,2.50
2019-05-03T18:30:17.308Z,2.65
2019-05-03T18:32:47.691Z,2.50
2019-05-03T18:35:17.923Z,2.90
2019-05-03T18:37:58.069Z,2.98
2019-05-03T18:40:29.876Z,2.70
2019-05-03T18:43:08.058Z,2.45
2019-05-03T18:46:06.250Z,2.90
2019-05-03T18:48:36.343Z,2.52
2019-05-03T18:51:06.390Z,2.87
2019-05-03T18:53:36.503Z,3.15
2019-05-03T18:56:06.525Z,2.92
2019-05-03T18:58:36.535Z,3.02
2019-05-03T19:01:06.874Z,2.85
2019-05-03T19:03:37.001Z,2.92
2019-05-03T19:06:08.434Z,3.30
2019-05-03T19:08:56.341Z,3.42
2019-05-03T19:12:04.826Z,3.20
2019-05-03T19:14:35.159Z,3.27
2019-05-03T19:17:24.874Z,3.35
2019-05-03T19:19:55.583Z,3.60
2019-05-03T19:22:25.763Z,3.05
2019-05-03T19:24:55.812Z,3.20
2019-05-03T19:27:25.864Z,3.20
2019-05-03T19:29:55.931Z,3.12
2019-05-03T19:32:28.309Z,3.60
2019-05-03T19:34:57.959Z,3.37
2019-05-03T19:37:28.288Z,3.20
2019-05-03T19:39:58.321Z,3.80
2019-05-03T19:42:28.410Z,3.65
2019-05-03T19:44:58.547Z,3.67
2019-05-03T19:47:28.595Z,3.47
2019-05-03T19:49:58.699Z,3.70
2019-05-03T19:52:34.364Z,3.95
2019-05-03T19:55:05.183Z,3.90
2019-05-03T19:57:38.759Z,3.85
2019-05-03T20:00:09.530Z,4.50
2019-05-03T20:02:58.591Z,3.77
2019-05-03T20:05:47.760Z,4.50
2019-05-03T20:08:28.248Z,3.85
2019-05-03T20:11:15.372Z,4.25
2019-05-03T20:13:46.588Z,4.35
2019-05-03T20:16:16.607Z,4.40
2019-05-03T20:18:46.670Z,4.78
2019-05-03T20:21:16.786Z,5.12
2019-05-03T20:23:47.158Z,4.80
2019-05-03T20:26:17.410Z,4.85
2019-05-03T20:28:47.457Z,5.33
2019-05-03T20:31:17.551Z,4.60
2019-05-03T20:33:47.656Z,5.25
2019-05-03T20:36:17.719Z,5.17
2019-05-03T20:38:47.758Z,5.67
2019-05-03T20:41:17.921Z,5.12
2019-05-03T20:43:55.802Z,5.45
2019-05-03T20:46:33.904Z,5.15
2019-05-03T20:49:06.460Z,5.37
2019-05-03T20:51:36.682Z,5.08
2019-05-03T20:54:06.759Z,5.90
2019-05-03T20:56:36.799Z,5.85
2019-05-03T20:59:06.820Z,5.28
2019-05-03T21:01:36.909Z,5.72
2019-05-03T21:04:06.959Z,5.05
2019-05-03T21:06:38.066Z,5.78
2019-05-03T21:09:08.566Z,5.00
2019-05-03T21:11:40.214Z,5.50
2019-05-03T21:14:10.226Z,5.45
2019-05-03T21:17:00.386Z,5.37
2019-05-03T21:19:40.711Z,5.08
2019-05-03T21:22:18.014Z,5.45
2019-05-03T21:25:11.997Z,5.37
2019-05-03T21:27:42.051Z,5.33
2019-05-03T21:30:12.333Z,5.37
2019-05-03T21:32:44.316Z,5.70
2019-05-03T21:35:14.816Z,6.10
2019-05-03T21:37:45.458Z,6.20
2019-05-03T21:40:15.714Z,6.03
2019-05-03T21:42:45.751Z,7.37
2019-05-03T21:45:17.464Z,7.53
2019-05-03T21:48:14.472Z,7.05
2019-05-03T21:50:44.805Z,7.90
2019-05-03T21:53:14.958Z,7.58
2019-05-03T21:55:44.995Z,8.08
2019-05-03T21:58:16.551Z,7.87
2019-05-03T22:00:55.414Z,7.35
2019-05-03T22:03:25.634Z,7.90
2019-05-03T22:05:58.016Z,8.23
2019-05-03T22:08:27.601Z,7.22
2019-05-03T22:10:57.670Z,7.37
2019-05-03T22:13:27.702Z,7.95
2019-05-03T22:16:16.746Z,7.85
2019-05-03T22:18:46.846Z,7.50
2019-05-03T22:21:27.637Z,7.15
2019-05-03T22:24:26.051Z,7.55
2019-05-03T22:27:17.100Z,7.22
2019-05-03T22:29:47.149Z,7.95
2019-05-03T22:32:17.162Z,7.90
2019-05-03T22:34:47.295Z,7.22
2019-05-03T22:37:17.344Z,7.47
2019-05-03T22:39:47.886Z,7.30
2019-05-03T22:42:18.897Z,6.83
2019-05-03T22:44:48.927Z,6.62
2019-05-03T22:47:18.970Z,6.97
2019-05-03T22:49:49.079Z,6.58
2019-05-03T22:52:19.119Z,6.97
2019-05-03T22:54:49.211Z,7.35
2019-05-03T22:57:19.316Z,7.92
2019-05-03T22:59:49.345Z,7.50
2019-05-03T23:02:19.350Z,7.22
2019-05-03T23:04:49.607Z,6.87
2019-05-03T23:07:19.657Z,8.48
2019-05-03T23:09:49.770Z,8.10
2019-05-03T23:12:19.863Z,6.92
2019-05-03T23:14:49.902Z,8.40
2019-05-03T23:17:19.914Z,8.43
2019-05-03T23:19:53.538Z,8.85
2019-05-03T23:22:26.489Z,8.30
2019-05-03T23:24:56.551Z,8.70
2019-05-03T23:27:26.602Z,8.30
2019-05-03T23:29:56.718Z,8.63
2019-05-03T23:32:26.820Z,8.45
2019-05-03T23:34:56.874Z,9.70
2019-05-03T23:37:26.998Z,9.03
2019-05-03T23:39:57.102Z,9.95
2019-05-03T23:42:27.162Z,9.15
2019-05-03T23:44:57.193Z,9.83
2019-05-03T23:47:44.853Z,9.85
2019-05-03T23:50:18.299Z,9.20
2019-05-03T23:52:48.312Z,10.25
2019-05-03T23:55:40.009Z,10.50
2019-05-03T23:58:10.019Z,10.88
